sensor_id;sensor_type;location;lat;lon;timestamp;temperature;humidity
24614;DHT22;12760;46.296;25.290;2022-08-03T00:01:33;20.20;99.90
24614;DHT22;12760;46.296;25.290;2022-08-03T00:03:59;20.20;99.90
24614;DHT22;12760;46.296;25.290;2022-08-03T00:06:24;20.20;99.90
24614;DHT22;12760;46.296;25.290;2022-08-03T00:08:50;20.20;99.90
24614;DHT22;12760;46.296;25.290;2022-08-03T00:11:16;20.10;99.90
24614;DHT22;12760;46.296;25.290;2022-08-03T00:13:42;20.10;99.90
24614;DHT22;12760;46.296;25.290;2022-08-03T00:16:08;20.10;99.90
24614;DHT22;12760;46.296;25.290;2022-08-03T00:18:35;20.10;99.90
24614;DHT22;12760;46.296;25.290;2022-08-03T00:21:02;19.90;99.90
24614;DHT22;12760;46.296;25.290;2022-08-03T00:23:27;19.80;99.90
24614;DHT22;12760;46.296;25.290;2022-08-03T00:25:53;19.90;99.90
24614;DHT22;12760;46.296;25.290;2022-08-03T00:28:19;19.90;99.90
24614;DHT22;12760;46.296;25.290;2022-08-03T00:30:45;19.90;99.90
24614;DHT22;12760;46.296;25.290;2022-08-03T00:33:11;19.80;99.90
24614;DHT22;12760;46.296;25.290;2022-08-03T00:35:37;19.80;99.90
24614;DHT22;12760;46.296;25.290;2022-08-03T00:38:03;19.70;99.90
24614;DHT22;12760;46.296;25.290;2022-08-03T00:40:30;19.70;99.90
24614;DHT22;12760;46.296;25.290;2022-08-03T00:42:59;19.60;99.90
24614;DHT22;12760;46.296;25.290;2022-08-03T00:45:36;19.70;99.90
24614;DHT22;12760;46.296;25.290;2022-08-03T00:48:03;19.70;99.90
24614;DHT22;12760;46.296;25.290;2022-08-03T00:50:31;19.70;99.90
24614;DHT22;12760;46.296;25.290;2022-08-03T00:53:00;19.70;99.90
24614;DHT22;12760;46.296;25.290;2022-08-03T00:55:26;19.70;99.90
24614;DHT22;12760;46.296;25.290;2022-08-03T00:57:52;19.60;99.90
24614;DHT22;12760;46.296;25.290;2022-08-03T01:00:20;19.60;99.90
24614;DHT22;12760;46.296;25.290;2022-08-03T01:02:47;19.70;99.90
24614;DHT22;12760;46.296;25.290;2022-08-03T01:05:13;19.60;99.90
24614;DHT22;12760;46.296;25.290;2022-08-03T01:07:57;19.60;99.90
24614;DHT22;12760;46.296;25.290;2022-08-03T01:13:44;19.40;99.90
24614;DHT22;12760;46.296;25.290;2022-08-03T01:16:17;19.50;99.90
24614;DHT22;12760;46.296;25.290;2022-08-03T01:22:22;19.40;99.90
24614;DHT22;12760;46.296;25.290;2022-08-03T01:27:24;19.40;99.90
24614;DHT22;12760;46.296;25.290;2022-08-03T01:29:58;19.40;99.90
24614;DHT22;12760;46.296;25.290;2022-08-03T01:32:38;19.30;99.90
24614;DHT22;12760;46.296;25.290;2022-08-03T01:35:10;19.30;99.90
24614;DHT22;12760;46.296;25.290;2022-08-03T01:37:44;19.20;99.90
24614;DHT22;12760;46.296;25.290;2022-08-03T01:40:13;19.20;99.90
24614;DHT22;12760;46.296;25.290;2022-08-03T01:42:40;19.10;99.90
24614;DHT22;12760;46.296;25.290;2022-08-03T01:45:08;19.10;99.90
24614;DHT22;12760;46.296;25.290;2022-08-03T01:47:36;19.00;99.90
24614;DHT22;12760;46.296;25.290;2022-08-03T01:50:04;19.10;99.90
24614;DHT22;12760;46.296;25.290;2022-08-03T01:52:31;19.10;99.90
24614;DHT22;12760;46.296;25.290;2022-08-03T01:54:58;19.10;99.90
24614;DHT22;12760;46.296;25.290;2022-08-03T01:57:24;19.20;99.90
24614;DHT22;12760;46.296;25.290;2022-08-03T01:59:55;19.20;99.90
24614;DHT22;12760;46.296;25.290;2022-08-03T02:02:21;19.20;99.90
24614;DHT22;12760;46.296;25.290;2022-08-03T02:04:49;19.30;99.90
24614;DHT22;12760;46.296;25.290;2022-08-03T02:07:17;19.30;99.90
24614;DHT22;12760;46.296;25.290;2022-08-03T02:09:50;19.30;99.90
24614;DHT22;12760;46.296;25.290;2022-08-03T02:12:17;19.20;99.90
24614;DHT22;12760;46.296;25.290;2022-08-03T02:14:45;19.10;99.90
24614;DHT22;12760;46.296;25.290;2022-08-03T02:17:11;19.00;99.90
24614;DHT22;12760;46.296;25.290;2022-08-03T02:19:39;19.00;99.90
24614;DHT22;12760;46.296;25.290;2022-08-03T02:22:09;19.00;99.90
24614;DHT22;12760;46.296;25.290;2022-08-03T02:24:35;19.00;99.90
24614;DHT22;12760;46.296;25.290;2022-08-03T02:27:17;19.00;99.90
24614;DHT22;12760;46.296;25.290;2022-08-03T02:29:47;19.00;99.90
24614;DHT22;12760;46.296;25.290;2022-08-03T02:32:19;18.90;99.90
24614;DHT22;12760;46.296;25.290;2022-08-03T02:34:49;18.80;99.90
24614;DHT22;12760;46.296;25.290;2022-08-03T02:37:18;18.80;99.90
24614;DHT22;12760;46.296;25.290;2022-08-03T02:39:44;18.80;99.90
24614;DHT22;12760;46.296;25.290;2022-08-03T02:42:13;18.70;99.90
24614;DHT22;12760;46.296;25.290;2022-08-03T02:44:40;18.70;99.90
24614;DHT22;12760;46.296;25.290;2022-08-03T02:47:12;18.70;99.90
24614;DHT22;12760;46.296;25.290;2022-08-03T02:49:40;18.70;99.90
24614;DHT22;12760;46.296;25.290;2022-08-03T02:52:10;18.60;99.90
24614;DHT22;12760;46.296;25.290;2022-08-03T02:54:37;18.60;99.90
24614;DHT22;12760;46.296;25.290;2022-08-03T02:57:06;18.50;99.90
24614;DHT22;12760;46.296;25.290;2022-08-03T02:59:32;18.60;99.90
24614;DHT22;12760;46.296;25.290;2022-08-03T03:01:59;18.60;99.90
24614;DHT22;12760;46.296;25.290;2022-08-03T03:04:28;18.70;99.90
24614;DHT22;12760;46.296;25.290;2022-08-03T03:06:55;18.60;99.90
24614;DHT22;12760;46.296;25.290;2022-08-03T03:09:21;18.50;99.90
24614;DHT22;12760;46.296;25.290;2022-08-03T03:11:48;18.50;99.90
24614;DHT22;12760;46.296;25.290;2022-08-03T03:14:16;18.50;99.90
24614;DHT22;12760;46.296;25.290;2022-08-03T03:16:44;18.50;99.90
24614;DHT22;12760;46.296;25.290;2022-08-03T03:19:13;18.50;99.90
24614;DHT22;12760;46.296;25.290;2022-08-03T03:21:41;18.50;99.90
24614;DHT22;12760;46.296;25.290;2022-08-03T03:24:09;18.60;99.90
24614;DHT22;12760;46.296;25.290;2022-08-03T03:26:35;18.50;99.90
24614;DHT22;12760;46.296;25.290;2022-08-03T03:29:01;18.50;99.90
24614;DHT22;12760;46.296;25.290;2022-08-03T03:31:27;18.50;99.90
24614;DHT22;12760;46.296;25.290;2022-08-03T03:33:56;18.50;99.90
24614;DHT22;12760;46.296;25.290;2022-08-03T03:36:22;18.50;99.90
24614;DHT22;12760;46.296;25.290;2022-08-03T03:38:48;18.50;99.90
24614;DHT22;12760;46.296;25.290;2022-08-03T03:41:14;18.50;99.90
24614;DHT22;12760;46.296;25.290;2022-08-03T03:43:40;18.50;99.90
24614;DHT22;12760;46.296;25.290;2022-08-03T03:46:05;18.40;99.90
24614;DHT22;12760;46.296;25.290;2022-08-03T03:48:32;18.40;99.90
24614;DHT22;12760;46.296;25.290;2022-08-03T03:50:58;18.50;99.90
24614;DHT22;12760;46.296;25.290;2022-08-03T03:53:24;18.40;99.90
24614;DHT22;12760;46.296;25.290;2022-08-03T03:55:51;18.40;99.90
24614;DHT22;12760;46.296;25.290;2022-08-03T03:58:19;18.40;99.90
24614;DHT22;12760;46.296;25.290;2022-08-03T04:00:45;18.30;99.90
24614;DHT22;12760;46.296;25.290;2022-08-03T04:03:11;18.30;99.90
24614;DHT22;12760;46.296;25.290;2022-08-03T04:05:37;18.30;99.90
24614;DHT22;12760;46.296;25.290;2022-08-03T04:08:21;18.30;99.90
24614;DHT22;12760;46.296;25.290;2022-08-03T04:11:29;18.20;99.90
24614;DHT22;12760;46.296;25.290;2022-08-03T04:14:07;18.20;99.90
24614;DHT22;12760;46.296;25.290;2022-08-03T04:16:36;18.20;99.90
24614;DHT22;12760;46.296;25.290;2022-08-03T04:19:09;18.20;99.90
24614;DHT22;12760;46.296;25.290;2022-08-03T04:21:42;18.20;99.90
24614;DHT22;12760;46.296;25.290;2022-08-03T04:24:10;18.30;99.90
24614;DHT22;12760;46.296;25.290;2022-08-03T04:26:38;18.30;99.90
24614;DHT22;12760;46.296;25.290;2022-08-03T04:29:05;18.40;99.90
24614;DHT22;12760;46.296;25.290;2022-08-03T04:31:33;18.40;99.90
24614;DHT22;12760;46.296;25.290;2022-08-03T04:33:59;18.40;99.90
24614;DHT22;12760;46.296;25.290;2022-08-03T04:36:28;18.40;99.90
24614;DHT22;12760;46.296;25.290;2022-08-03T04:41:27;18.50;99.90
24614;DHT22;12760;46.296;25.290;2022-08-03T04:43:55;18.50;99.90
24614;DHT22;12760;46.296;25.290;2022-08-03T04:46:25;18.50;99.90
24614;DHT22;12760;46.296;25.290;2022-08-03T04:48:51;18.60;99.90
24614;DHT22;12760;46.296;25.290;2022-08-03T04:51:17;18.60;99.90
24614;DHT22;12760;46.296;25.290;2022-08-03T04:53:43;18.60;99.90
24614;DHT22;12760;46.296;25.290;2022-08-03T04:56:09;18.50;99.90
24614;DHT22;12760;46.296;25.290;2022-08-03T04:58:34;18.60;99.90
24614;DHT22;12760;46.296;25.290;2022-08-03T05:01:00;18.60;99.90
24614;DHT22;12760;46.296;25.290;2022-08-03T05:03:26;18.60;99.90
24614;DHT22;12760;46.296;25.290;2022-08-03T05:05:53;18.60;99.90
24614;DHT22;12760;46.296;25.290;2022-08-03T05:08:19;18.60;99.90
24614;DHT22;12760;46.296;25.290;2022-08-03T05:10:45;18.60;99.90
24614;DHT22;12760;46.296;25.290;2022-08-03T05:13:11;18.60;99.90
24614;DHT22;12760;46.296;25.290;2022-08-03T05:15:38;18.60;99.90
24614;DHT22;12760;46.296;25.290;2022-08-03T05:18:04;18.60;99.90
24614;DHT22;12760;46.296;25.290;2022-08-03T05:20:30;18.60;99.90
24614;DHT22;12760;46.296;25.290;2022-08-03T05:22:56;18.70;99.90
24614;DHT22;12760;46.296;25.290;2022-08-03T05:25:23;18.80;99.90
24614;DHT22;12760;46.296;25.290;2022-08-03T05:27:49;18.90;99.90
24614;DHT22;12760;46.296;25.290;2022-08-03T05:30:15;18.90;99.90
24614;DHT22;12760;46.296;25.290;2022-08-03T05:32:41;18.90;99.90
24614;DHT22;12760;46.296;25.290;2022-08-03T05:35:07;18.80;99.90
24614;DHT22;12760;46.296;25.290;2022-08-03T05:37:33;18.80;99.90
24614;DHT22;12760;46.296;25.290;2022-08-03T05:39:58;18.80;99.90
24614;DHT22;12760;46.296;25.290;2022-08-03T05:42:24;18.70;99.90
24614;DHT22;12760;46.296;25.290;2022-08-03T05:44:50;18.70;99.90
24614;DHT22;12760;46.296;25.290;2022-08-03T05:47:15;18.70;99.90
24614;DHT22;12760;46.296;25.290;2022-08-03T05:49:41;18.80;99.90
24614;DHT22;12760;46.296;25.290;2022-08-03T05:52:07;18.90;99.90
24614;DHT22;12760;46.296;25.290;2022-08-03T05:54:32;19.10;99.90
24614;DHT22;12760;46.296;25.290;2022-08-03T05:56:58;19.30;99.90
24614;DHT22;12760;46.296;25.290;2022-08-03T05:59:24;19.50;99.90
24614;DHT22;12760;46.296;25.290;2022-08-03T06:01:52;19.70;99.90
24614;DHT22;12760;46.296;25.290;2022-08-03T06:04:18;20.00;99.90
24614;DHT22;12760;46.296;25.290;2022-08-03T06:06:44;20.10;99.90
24614;DHT22;12760;46.296;25.290;2022-08-03T06:09:10;20.30;99.90
24614;DHT22;12760;46.296;25.290;2022-08-03T06:11:36;20.50;99.90
24614;DHT22;12760;46.296;25.290;2022-08-03T06:14:02;20.60;99.90
24614;DHT22;12760;46.296;25.290;2022-08-03T06:16:28;20.80;99.90
24614;DHT22;12760;46.296;25.290;2022-08-03T06:18:54;20.90;99.90
24614;DHT22;12760;46.296;25.290;2022-08-03T06:21:19;21.20;99.90
24614;DHT22;12760;46.296;25.290;2022-08-03T06:23:45;21.40;99.90
24614;DHT22;12760;46.296;25.290;2022-08-03T06:26:12;21.60;99.90
24614;DHT22;12760;46.296;25.290;2022-08-03T06:28:38;21.90;99.90
24614;DHT22;12760;46.296;25.290;2022-08-03T06:31:04;22.00;99.90
24614;DHT22;12760;46.296;25.290;2022-08-03T06:33:30;22.10;99.90
24614;DHT22;12760;46.296;25.290;2022-08-03T06:35:56;22.20;99.90
24614;DHT22;12760;46.296;25.290;2022-08-03T06:38:22;22.50;99.90
24614;DHT22;12760;46.296;25.290;2022-08-03T06:40:47;22.70;99.90
24614;DHT22;12760;46.296;25.290;2022-08-03T06:43:14;22.80;99.90
24614;DHT22;12760;46.296;25.290;2022-08-03T06:45:40;23.00;99.90
24614;DHT22;12760;46.296;25.290;2022-08-03T06:48:09;23.00;99.90
24614;DHT22;12760;46.296;25.290;2022-08-03T06:50:38;23.10;99.90
24614;DHT22;12760;46.296;25.290;2022-08-03T06:53:04;23.30;99.90
24614;DHT22;12760;46.296;25.290;2022-08-03T06:55:31;23.50;99.90
24614;DHT22;12760;46.296;25.290;2022-08-03T06:57:57;23.70;99.90
24614;DHT22;12760;46.296;25.290;2022-08-03T07:00:23;23.80;99.90
24614;DHT22;12760;46.296;25.290;2022-08-03T07:02:49;24.10;99.90
24614;DHT22;12760;46.296;25.290;2022-08-03T07:05:16;24.30;99.90
24614;DHT22;12760;46.296;25.290;2022-08-03T07:07:42;24.50;99.90
24614;DHT22;12760;46.296;25.290;2022-08-03T07:10:08;24.80;99.90
24614;DHT22;12760;46.296;25.290;2022-08-03T07:12:36;25.00;99.90
24614;DHT22;12760;46.296;25.290;2022-08-03T07:15:04;25.10;99.90
24614;DHT22;12760;46.296;25.290;2022-08-03T07:17:32;25.20;99.90
24614;DHT22;12760;46.296;25.290;2022-08-03T07:19:58;25.30;99.90
24614;DHT22;12760;46.296;25.290;2022-08-03T07:22:24;25.40;99.90
24614;DHT22;12760;46.296;25.290;2022-08-03T07:24:50;25.50;99.90
24614;DHT22;12760;46.296;25.290;2022-08-03T07:27:16;25.70;99.90
24614;DHT22;12760;46.296;25.290;2022-08-03T07:29:41;25.90;99.90
24614;DHT22;12760;46.296;25.290;2022-08-03T07:32:07;26.20;99.90
24614;DHT22;12760;46.296;25.290;2022-08-03T07:34:33;26.40;99.90
24614;DHT22;12760;46.296;25.290;2022-08-03T07:36:59;26.50;99.90
24614;DHT22;12760;46.296;25.290;2022-08-03T07:39:24;26.70;99.90
24614;DHT22;12760;46.296;25.290;2022-08-03T07:41:50;26.80;99.70
24614;DHT22;12760;46.296;25.290;2022-08-03T07:44:19;26.80;99.60
24614;DHT22;12760;46.296;25.290;2022-08-03T07:46:45;26.90;98.90
24614;DHT22;12760;46.296;25.290;2022-08-03T07:49:11;27.10;99.10
24614;DHT22;12760;46.296;25.290;2022-08-03T07:51:37;27.30;99.90
24614;DHT22;12760;46.296;25.290;2022-08-03T07:54:03;27.30;97.80
24614;DHT22;12760;46.296;25.290;2022-08-03T07:56:29;27.50;98.30
24614;DHT22;12760;46.296;25.290;2022-08-03T07:58:55;27.60;97.30
24614;DHT22;12760;46.296;25.290;2022-08-03T08:01:22;27.60;97.00
24614;DHT22;12760;46.296;25.290;2022-08-03T08:03:49;27.50;97.30
24614;DHT22;12760;46.296;25.290;2022-08-03T08:06:15;27.60;97.50
24614;DHT22;12760;46.296;25.290;2022-08-03T08:08:42;27.80;97.70
24614;DHT22;12760;46.296;25.290;2022-08-03T08:11:07;27.80;97.00
24614;DHT22;12760;46.296;25.290;2022-08-03T08:13:33;27.90;97.20
24614;DHT22;12760;46.296;25.290;2022-08-03T08:15:59;28.00;96.70
24614;DHT22;12760;46.296;25.290;2022-08-03T08:18:25;28.10;97.70
24614;DHT22;12760;46.296;25.290;2022-08-03T08:20:54;28.30;96.90
24614;DHT22;12760;46.296;25.290;2022-08-03T08:23:19;28.30;97.00
24614;DHT22;12760;46.296;25.290;2022-08-03T08:25:50;28.50;96.00
24614;DHT22;12760;46.296;25.290;2022-08-03T08:28:20;28.50;95.20
24614;DHT22;12760;46.296;25.290;2022-08-03T08:30:46;28.40;95.90
24614;DHT22;12760;46.296;25.290;2022-08-03T08:33:12;28.30;94.90
24614;DHT22;12760;46.296;25.290;2022-08-03T08:35:38;28.50;96.30
24614;DHT22;12760;46.296;25.290;2022-08-03T08:38:04;28.60;95.00
24614;DHT22;12760;46.296;25.290;2022-08-03T08:40:30;28.60;94.80
24614;DHT22;12760;46.296;25.290;2022-08-03T08:42:56;28.40;95.00
24614;DHT22;12760;46.296;25.290;2022-08-03T08:45:21;28.30;94.40
24614;DHT22;12760;46.296;25.290;2022-08-03T08:47:48;28.10;95.80
24614;DHT22;12760;46.296;25.290;2022-08-03T08:50:19;28.30;96.40
24614;DHT22;12760;46.296;25.290;2022-08-03T08:52:48;28.50;95.70
24614;DHT22;12760;46.296;25.290;2022-08-03T08:55:19;28.70;95.80
24614;DHT22;12760;46.296;25.290;2022-08-03T08:57:55;28.90;95.40
24614;DHT22;12760;46.296;25.290;2022-08-03T09:00:22;28.90;93.80
24614;DHT22;12760;46.296;25.290;2022-08-03T09:02:49;28.90;94.10
24614;DHT22;12760;46.296;25.290;2022-08-03T09:05:16;28.80;94.00
24614;DHT22;12760;46.296;25.290;2022-08-03T09:07:43;28.90;93.70
24614;DHT22;12760;46.296;25.290;2022-08-03T09:10:11;29.10;93.90
24614;DHT22;12760;46.296;25.290;2022-08-03T09:12:46;29.20;93.90
24614;DHT22;12760;46.296;25.290;2022-08-03T09:15:17;29.30;94.00
24614;DHT22;12760;46.296;25.290;2022-08-03T09:17:43;28.90;93.80
24614;DHT22;12760;46.296;25.290;2022-08-03T09:20:09;29.00;93.90
24614;DHT22;12760;46.296;25.290;2022-08-03T09:23:06;29.20;93.40
24614;DHT22;12760;46.296;25.290;2022-08-03T09:25:40;29.50;93.70
24614;DHT22;12760;46.296;25.290;2022-08-03T09:28:11;29.40;92.70
24614;DHT22;12760;46.296;25.290;2022-08-03T09:30:43;29.30;93.50
24614;DHT22;12760;46.296;25.290;2022-08-03T09:33:11;29.40;92.10
24614;DHT22;12760;46.296;25.290;2022-08-03T09:35:44;29.40;92.00
24614;DHT22;12760;46.296;25.290;2022-08-03T09:38:15;29.50;93.30
24614;DHT22;12760;46.296;25.290;2022-08-03T09:40:41;29.60;92.30
24614;DHT22;12760;46.296;25.290;2022-08-03T09:43:08;29.70;92.40
24614;DHT22;12760;46.296;25.290;2022-08-03T09:45:36;29.80;92.40
24614;DHT22;12760;46.296;25.290;2022-08-03T09:48:27;30.00;91.40
24614;DHT22;12760;46.296;25.290;2022-08-03T09:50:59;29.90;91.10
24614;DHT22;12760;46.296;25.290;2022-08-03T09:53:26;29.70;91.30
24614;DHT22;12760;46.296;25.290;2022-08-03T09:55:59;29.60;91.70
24614;DHT22;12760;46.296;25.290;2022-08-03T09:58:28;29.60;91.70
24614;DHT22;12760;46.296;25.290;2022-08-03T10:01:04;29.60;91.30
24614;DHT22;12760;46.296;25.290;2022-08-03T10:03:39;29.80;91.40
24614;DHT22;12760;46.296;25.290;2022-08-03T10:06:16;29.80;90.00
24614;DHT22;12760;46.296;25.290;2022-08-03T10:08:44;29.90;90.90
24614;DHT22;12760;46.296;25.290;2022-08-03T10:11:10;30.00;90.10
24614;DHT22;12760;46.296;25.290;2022-08-03T10:13:37;30.00;90.00
24614;DHT22;12760;46.296;25.290;2022-08-03T10:16:03;30.10;90.00
24614;DHT22;12760;46.296;25.290;2022-08-03T10:18:30;30.10;90.10
24614;DHT22;12760;46.296;25.290;2022-08-03T10:21:03;30.20;89.50
24614;DHT22;12760;46.296;25.290;2022-08-03T10:23:33;30.20;90.40
24614;DHT22;12760;46.296;25.290;2022-08-03T10:26:02;30.30;91.00
24614;DHT22;12760;46.296;25.290;2022-08-03T10:28:34;30.30;90.10
24614;DHT22;12760;46.296;25.290;2022-08-03T10:31:01;30.30;88.90
24614;DHT22;12760;46.296;25.290;2022-08-03T10:33:31;30.30;90.30
24614;DHT22;12760;46.296;25.290;2022-08-03T10:35:59;30.20;88.70
24614;DHT22;12760;46.296;25.290;2022-08-03T10:38:39;30.20;90.00
24614;DHT22;12760;46.296;25.290;2022-08-03T10:41:06;30.10;89.30
24614;DHT22;12760;46.296;25.290;2022-08-03T10:43:39;30.00;90.50
24614;DHT22;12760;46.296;25.290;2022-08-03T10:46:07;29.90;90.10
24614;DHT22;12760;46.296;25.290;2022-08-03T10:48:33;29.80;88.60
24614;DHT22;12760;46.296;25.290;2022-08-03T10:51:00;29.70;89.20
24614;DHT22;12760;46.296;25.290;2022-08-03T10:53:41;29.80;90.30
24614;DHT22;12760;46.296;25.290;2022-08-03T11:02:16;30.00;89.50
24614;DHT22;12760;46.296;25.290;2022-08-03T11:04:42;29.80;90.40
24614;DHT22;12760;46.296;25.290;2022-08-03T11:07:19;29.60;89.60
24614;DHT22;12760;46.296;25.290;2022-08-03T11:09:54;29.50;90.40
24614;DHT22;12760;46.296;25.290;2022-08-03T11:12:31;29.50;90.20
24614;DHT22;12760;46.296;25.290;2022-08-03T11:15:06;29.60;90.20
24614;DHT22;12760;46.296;25.290;2022-08-03T11:17:33;29.70;90.40
24614;DHT22;12760;46.296;25.290;2022-08-03T11:19:59;29.70;90.40
24614;DHT22;12760;46.296;25.290;2022-08-03T11:22:47;29.70;89.20
24614;DHT22;12760;46.296;25.290;2022-08-03T11:25:13;29.60;88.60
24614;DHT22;12760;46.296;25.290;2022-08-03T11:27:40;29.60;88.30
24614;DHT22;12760;46.296;25.290;2022-08-03T11:30:07;29.80;88.60
24614;DHT22;12760;46.296;25.290;2022-08-03T11:35:31;29.80;88.50
24614;DHT22;12760;46.296;25.290;2022-08-03T11:42:59;29.90;88.40
24614;DHT22;12760;46.296;25.290;2022-08-03T11:45:25;29.90;87.50
24614;DHT22;12760;46.296;25.290;2022-08-03T11:47:54;30.00;89.10
24614;DHT22;12760;46.296;25.290;2022-08-03T11:50:21;29.90;87.00
24614;DHT22;12760;46.296;25.290;2022-08-03T11:52:49;29.90;86.10
24614;DHT22;12760;46.296;25.290;2022-08-03T11:55:17;30.00;88.60
24614;DHT22;12760;46.296;25.290;2022-08-03T11:57:45;30.10;86.40
24614;DHT22;12760;46.296;25.290;2022-08-03T12:00:22;30.20;88.30
24614;DHT22;12760;46.296;25.290;2022-08-03T12:03:01;30.20;86.60
24614;DHT22;12760;46.296;25.290;2022-08-03T12:05:42;30.20;87.00
24614;DHT22;12760;46.296;25.290;2022-08-03T12:08:10;30.30;87.10
24614;DHT22;12760;46.296;25.290;2022-08-03T12:10:37;30.30;88.50
24614;DHT22;12760;46.296;25.290;2022-08-03T12:13:05;30.30;86.80
24614;DHT22;12760;46.296;25.290;2022-08-03T12:15:32;30.40;85.10
24614;DHT22;12760;46.296;25.290;2022-08-03T12:18:03;30.40;84.70
24614;DHT22;12760;46.296;25.290;2022-08-03T12:20:36;30.40;83.80
24614;DHT22;12760;46.296;25.290;2022-08-03T12:23:04;30.40;84.30
24614;DHT22;12760;46.296;25.290;2022-08-03T12:25:31;30.40;85.30
24614;DHT22;12760;46.296;25.290;2022-08-03T12:28:13;30.50;84.50
24614;DHT22;12760;46.296;25.290;2022-08-03T12:30:45;30.50;82.70
24614;DHT22;12760;46.296;25.290;2022-08-03T12:33:16;30.50;83.60
24614;DHT22;12760;46.296;25.290;2022-08-03T12:35:48;30.30;82.10
24614;DHT22;12760;46.296;25.290;2022-08-03T12:38:19;30.20;83.10
24614;DHT22;12760;46.296;25.290;2022-08-03T12:40:55;30.20;85.30
24614;DHT22;12760;46.296;25.290;2022-08-03T12:43:21;30.40;84.40
24614;DHT22;12760;46.296;25.290;2022-08-03T12:45:46;30.50;85.20
24614;DHT22;12760;46.296;25.290;2022-08-03T12:48:12;30.60;85.60
24614;DHT22;12760;46.296;25.290;2022-08-03T12:50:38;30.60;84.50
24614;DHT22;12760;46.296;25.290;2022-08-03T12:53:07;30.60;83.50
24614;DHT22;12760;46.296;25.290;2022-08-03T12:55:35;30.70;84.20
24614;DHT22;12760;46.296;25.290;2022-08-03T12:58:06;30.70;83.70
24614;DHT22;12760;46.296;25.290;2022-08-03T13:00:34;30.80;84.90
24614;DHT22;12760;46.296;25.290;2022-08-03T13:03:05;30.80;85.00
24614;DHT22;12760;46.296;25.290;2022-08-03T13:05:42;30.80;85.40
24614;DHT22;12760;46.296;25.290;2022-08-03T13:08:22;30.80;86.00
24614;DHT22;12760;46.296;25.290;2022-08-03T13:10:48;30.80;86.60
24614;DHT22;12760;46.296;25.290;2022-08-03T13:13:13;30.90;85.80
24614;DHT22;12760;46.296;25.290;2022-08-03T13:15:39;30.90;85.20
24614;DHT22;12760;46.296;25.290;2022-08-03T13:18:05;30.90;84.50
24614;DHT22;12760;46.296;25.290;2022-08-03T13:20:31;30.90;84.50
24614;DHT22;12760;46.296;25.290;2022-08-03T13:22:58;30.90;85.20
24614;DHT22;12760;46.296;25.290;2022-08-03T13:25:24;30.90;83.20
24614;DHT22;12760;46.296;25.290;2022-08-03T13:27:50;30.90;85.70
24614;DHT22;12760;46.296;25.290;2022-08-03T13:30:17;30.90;84.00
24614;DHT22;12760;46.296;25.290;2022-08-03T13:32:43;30.90;83.30
24614;DHT22;12760;46.296;25.290;2022-08-03T13:35:09;30.90;84.70
24614;DHT22;12760;46.296;25.290;2022-08-03T13:37:35;30.80;81.50
24614;DHT22;12760;46.296;25.290;2022-08-03T13:40:03;30.70;82.60
24614;DHT22;12760;46.296;25.290;2022-08-03T13:42:31;30.70;83.40
24614;DHT22;12760;46.296;25.290;2022-08-03T13:44:57;30.70;84.10
24614;DHT22;12760;46.296;25.290;2022-08-03T13:47:23;30.70;84.80
24614;DHT22;12760;46.296;25.290;2022-08-03T13:49:49;30.80;82.60
24614;DHT22;12760;46.296;25.290;2022-08-03T13:52:16;30.70;81.70
24614;DHT22;12760;46.296;25.290;2022-08-03T13:54:42;30.70;82.10
24614;DHT22;12760;46.296;25.290;2022-08-03T13:57:08;30.70;82.30
24614;DHT22;12760;46.296;25.290;2022-08-03T13:59:36;30.60;83.30
24614;DHT22;12760;46.296;25.290;2022-08-03T14:02:02;30.60;84.30
24614;DHT22;12760;46.296;25.290;2022-08-03T14:04:27;30.60;83.20
24614;DHT22;12760;46.296;25.290;2022-08-03T14:06:53;30.60;84.20
24614;DHT22;12760;46.296;25.290;2022-08-03T14:09:19;30.60;82.60
24614;DHT22;12760;46.296;25.290;2022-08-03T14:11:44;30.50;82.50
24614;DHT22;12760;46.296;25.290;2022-08-03T14:14:10;30.50;82.30
24614;DHT22;12760;46.296;25.290;2022-08-03T14:16:36;30.50;83.00
24614;DHT22;12760;46.296;25.290;2022-08-03T14:19:03;30.50;81.90
24614;DHT22;12760;46.296;25.290;2022-08-03T14:21:32;30.50;82.20
24614;DHT22;12760;46.296;25.290;2022-08-03T14:23:58;30.60;82.10
24614;DHT22;12760;46.296;25.290;2022-08-03T14:26:24;30.50;82.30
24614;DHT22;12760;46.296;25.290;2022-08-03T14:28:49;30.50;83.80
24614;DHT22;12760;46.296;25.290;2022-08-03T14:31:15;30.50;83.60
24614;DHT22;12760;46.296;25.290;2022-08-03T14:33:41;30.40;83.50
24614;DHT22;12760;46.296;25.290;2022-08-03T14:36:07;30.40;80.50
24614;DHT22;12760;46.296;25.290;2022-08-03T14:38:32;30.30;82.90
24614;DHT22;12760;46.296;25.290;2022-08-03T14:40:58;30.20;80.90
24614;DHT22;12760;46.296;25.290;2022-08-03T14:43:24;30.20;83.50
24614;DHT22;12760;46.296;25.290;2022-08-03T14:45:51;30.20;81.70
24614;DHT22;12760;46.296;25.290;2022-08-03T14:48:21;30.20;81.50
24614;DHT22;12760;46.296;25.290;2022-08-03T14:50:48;30.20;81.60
24614;DHT22;12760;46.296;25.290;2022-08-03T14:53:14;30.20;84.60
24614;DHT22;12760;46.296;25.290;2022-08-03T14:55:42;30.20;82.70
24614;DHT22;12760;46.296;25.290;2022-08-03T14:58:08;30.20;82.10
24614;DHT22;12760;46.296;25.290;2022-08-03T15:00:34;30.10;81.30
24614;DHT22;12760;46.296;25.290;2022-08-03T15:03:01;30.10;82.80
24614;DHT22;12760;46.296;25.290;2022-08-03T15:05:27;30.10;81.40
24614;DHT22;12760;46.296;25.290;2022-08-03T15:07:53;30.00;81.90
24614;DHT22;12760;46.296;25.290;2022-08-03T15:10:18;30.00;83.30
24614;DHT22;12760;46.296;25.290;2022-08-03T15:12:44;30.10;82.60
24614;DHT22;12760;46.296;25.290;2022-08-03T15:15:10;30.10;81.80
24614;DHT22;12760;46.296;25.290;2022-08-03T15:17:36;30.00;81.00
24614;DHT22;12760;46.296;25.290;2022-08-03T15:20:03;30.00;80.80
24614;DHT22;12760;46.296;25.290;2022-08-03T15:22:29;30.00;82.70
24614;DHT22;12760;46.296;25.290;2022-08-03T15:24:54;29.90;81.90
24614;DHT22;12760;46.296;25.290;2022-08-03T15:27:21;29.90;81.60
24614;DHT22;12760;46.296;25.290;2022-08-03T15:29:46;29.90;82.20
24614;DHT22;12760;46.296;25.290;2022-08-03T15:32:12;29.90;81.70
24614;DHT22;12760;46.296;25.290;2022-08-03T15:34:38;29.80;82.80
24614;DHT22;12760;46.296;25.290;2022-08-03T15:37:04;29.80;83.10
24614;DHT22;12760;46.296;25.290;2022-08-03T15:39:30;29.80;82.40
24614;DHT22;12760;46.296;25.290;2022-08-03T15:41:56;29.80;82.20
24614;DHT22;12760;46.296;25.290;2022-08-03T15:44:21;29.80;83.20
24614;DHT22;12760;46.296;25.290;2022-08-03T15:46:47;29.80;82.00